createdAt,value
2022-09-15T00:20:43.752Z,68.33
2022-09-15T00:23:11.507Z,68.27
2022-09-15T01:13:58.798Z,66.66
2022-09-15T01:16:31.242Z,66.52
2022-09-15T01:19:16.396Z,66.33
2022-09-15T01:21:54.641Z,66.18
2022-09-15T01:24:36.679Z,65.94
2022-09-15T01:30:59.827Z,65.49
2022-09-15T01:33:26.317Z,65.16
2022-09-15T03:21:55.489Z,64.24
2022-09-15T03:24:25.754Z,64.13
2022-09-15T03:27:03.613Z,64.13
2022-09-15T03:29:37.453Z,64.11
2022-09-15T03:32:29.163Z,64.14
2022-09-15T03:35:10.051Z,64.11
2022-09-15T03:38:01.109Z,63.99
2022-09-15T03:40:30.265Z,64.03
2022-09-15T03:43:05.076Z,64.01
2022-09-15T03:46:06.151Z,64.07
2022-09-15T03:48:39.466Z,64.07
2022-09-15T03:51:13.578Z,64.21
2022-09-15T03:53:45.500Z,64.35
2022-09-15T03:56:25.876Z,64.42
2022-09-15T03:58:56.790Z,64.52
2022-09-15T04:01:28.345Z,64.45
2022-09-15T04:03:55.862Z,64.43
2022-09-15T04:06:29.814Z,64.55
2022-09-15T04:09:02.631Z,64.59
2022-09-15T04:11:37.173Z,64.71
2022-09-15T04:14:32.427Z,64.63
2022-09-15T04:17:01.598Z,64.84
2022-09-15T04:19:34.958Z,64.93
2022-09-15T04:22:17.014Z,65.22
2022-09-15T04:24:56.655Z,65.41
2022-09-15T04:27:28.650Z,65.72
2022-09-15T04:30:01.818Z,65.86
2022-09-15T04:32:35.339Z,65.97
2022-09-15T04:35:06.181Z,66.17
2022-09-15T04:37:34.456Z,66.33
2022-09-15T04:40:13.609Z,66.49
2022-09-15T04:42:42.785Z,67.21
2022-09-15T04:45:19.278Z,67.92
2022-09-15T04:47:52.843Z,68.25
2022-09-15T04:50:22.236Z,68.38
2022-09-15T04:52:54.640Z,68.34
2022-09-15T04:55:26.921Z,68.93
2022-09-15T04:57:59.795Z,68.73
2022-09-15T05:00:26.640Z,68.65
2022-09-15T05:02:54.594Z,68.65
2022-09-15T05:05:24.934Z,68.65
2022-09-15T05:07:53.354Z,68.64
2022-09-15T05:10:32.641Z,68.81
2022-09-15T05:13:04.095Z,68.76
2022-09-15T05:15:31.309Z,68.79
2022-09-15T05:18:01.188Z,68.98
2022-09-15T05:20:31.012Z,69.08
2022-09-15T05:22:57.670Z,68.88
2022-09-15T05:25:27.713Z,69.20
2022-09-15T05:28:00.305Z,69.26
2022-09-15T05:30:38.605Z,69.42
2022-09-15T05:33:09.250Z,69.68
2022-09-15T05:35:36.557Z,69.86
2022-09-15T05:38:03.201Z,70.01
2022-09-15T05:40:30.269Z,70.62
2022-09-15T05:43:00.027Z,71.20
2022-09-15T05:45:26.749Z,71.64
2022-09-15T05:47:55.685Z,72.28
2022-09-15T05:50:25.993Z,72.54
2022-09-15T05:52:53.872Z,73.04
2022-09-15T05:55:20.778Z,73.46
2022-09-15T05:57:48.366Z,73.75
2022-09-15T06:00:15.333Z,74.00
2022-09-15T06:02:42.749Z,73.82
2022-09-15T06:05:37.267Z,74.18
2022-09-15T06:08:05.480Z,74.42
2022-09-15T06:10:36.034Z,74.61
2022-09-15T06:13:06.801Z,74.91
2022-09-15T06:15:58.104Z,74.84
2022-09-15T06:18:26.420Z,75.00
2022-09-15T06:20:54.825Z,74.87
2022-09-15T06:23:50.542Z,75.19
2022-09-15T06:26:18.405Z,75.24
2022-09-15T06:38:42.408Z,76.93
2022-09-15T06:45:15.125Z,76.88
2022-09-15T06:47:41.774Z,76.87
2022-09-15T06:50:33.839Z,77.14
2022-09-15T07:00:39.690Z,76.96
2022-09-15T07:03:10.166Z,77.23
2022-09-15T07:05:46.241Z,77.00
2022-09-15T07:08:13.560Z,77.21
2022-09-15T07:10:45.909Z,77.15
2022-09-15T07:13:16.496Z,77.00
2022-09-15T07:15:52.221Z,77.35
2022-09-15T07:18:22.520Z,77.49
2022-09-15T07:20:49.974Z,77.54
2022-09-15T07:23:19.980Z,77.53
2022-09-15T07:26:36.945Z,77.72
2022-09-15T07:29:04.996Z,77.72
2022-09-15T07:31:32.358Z,77.44
2022-09-15T07:34:24.136Z,77.57
2022-09-15T07:36:51.245Z,77.97
2022-09-15T07:39:18.131Z,78.09
2022-09-15T07:42:10.255Z,78.66
2022-09-15T07:44:38.034Z,78.94
2022-09-15T07:47:08.665Z,79.25
2022-09-15T07:49:35.446Z,79.13
2022-09-15T07:52:52.068Z,79.19
2022-09-15T07:55:19.301Z,79.29
2022-09-15T07:58:03.305Z,79.29
2022-09-15T08:00:35.092Z,78.87
2022-09-15T08:03:07.530Z,78.22
2022-09-15T08:05:46.063Z,77.77
2022-09-15T08:08:16.027Z,77.07
2022-09-15T08:10:47.449Z,76.16
2022-09-15T08:13:28.217Z,75.20
2022-09-15T08:16:16.731Z,74.41
2022-09-15T08:19:09.757Z,73.68
2022-09-15T08:21:40.268Z,72.69
2022-09-15T08:24:18.167Z,72.28
2022-09-15T08:26:58.015Z,72.17
2022-09-15T08:29:29.915Z,72.02
2022-09-15T08:32:12.510Z,72.21
2022-09-15T08:34:49.403Z,71.84
2022-09-15T08:37:21.650Z,71.00
2022-09-15T08:39:56.191Z,70.53
2022-09-15T08:42:30.142Z,70.60
2022-09-15T08:45:22.327Z,70.03
2022-09-15T08:47:58.225Z,69.56
2022-09-15T08:50:51.657Z,68.91
2022-09-15T08:53:45.130Z,67.74
2022-09-15T08:56:17.704Z,67.40
2022-09-15T08:59:15.590Z,67.14
2022-09-15T09:02:19.436Z,66.90
2022-09-15T09:05:04.055Z,66.75
2022-09-15T09:07:57.410Z,66.64
2022-09-15T09:10:30.342Z,66.41
2022-09-15T09:13:02.923Z,65.91
2022-09-15T09:15:47.973Z,66.20
2022-09-15T09:18:35.550Z,66.65
2022-09-15T09:21:13.659Z,66.89
2022-09-15T09:24:07.675Z,66.78
2022-09-15T09:26:38.844Z,67.01
2022-09-15T09:29:37.532Z,66.74
2022-09-15T09:32:22.249Z,66.56
2022-09-15T09:34:57.513Z,66.08
2022-09-15T09:37:24.800Z,65.83
2022-09-15T09:39:52.643Z,65.78
2022-09-15T09:42:21.813Z,65.88
2022-09-15T09:44:48.474Z,65.55
2022-09-15T10:05:18.903Z,65.11
2022-09-15T10:07:48.926Z,65.34
2022-09-15T10:10:23.573Z,65.38
2022-09-15T10:12:56.720Z,65.31
2022-09-15T10:15:26.505Z,65.27
2022-09-15T10:17:56.324Z,65.24
2022-09-15T10:20:23.942Z,64.87
2022-09-15T10:22:51.145Z,64.93
2022-09-15T11:05:38.624Z,60.15
2022-09-15T11:13:02.143Z,59.66
2022-09-15T11:15:31.717Z,59.74
2022-09-15T11:17:58.302Z,59.40
2022-09-15T11:20:34.319Z,58.86
2022-09-15T11:23:13.314Z,58.79
2022-09-15T11:25:45.210Z,58.79
2022-09-15T11:28:11.945Z,58.91
2022-09-15T11:30:47.754Z,58.75
2022-09-15T11:33:21.952Z,59.35
2022-09-15T11:35:48.609Z,59.50
2022-09-15T11:38:18.123Z,59.60
2022-09-15T11:40:57.544Z,60.06
2022-09-15T11:43:56.982Z,60.01
2022-09-15T11:46:35.342Z,60.08
2022-09-15T11:49:11.127Z,60.27
2022-09-15T11:51:48.163Z,60.45
2022-09-15T11:54:26.035Z,60.86
2022-09-15T11:56:55.945Z,61.11
2022-09-15T11:59:29.356Z,61.41
2022-09-15T12:02:11.106Z,61.45
2022-09-15T12:04:44.568Z,61.32
2022-09-15T12:07:13.789Z,61.73
2022-09-15T12:09:41.223Z,61.73
2022-09-15T12:12:16.053Z,61.92
2022-09-15T12:14:43.885Z,61.77
2022-09-15T12:17:28.871Z,61.93
2022-09-15T12:20:00.856Z,61.81
2022-09-15T12:22:39.478Z,61.24
2022-09-15T12:25:26.126Z,61.14
2022-09-15T12:28:14.014Z,60.99
2022-09-15T12:30:41.215Z,60.57
2022-09-15T12:33:31.080Z,59.92
2022-09-15T12:36:18.036Z,59.92
2022-09-15T12:38:48.660Z,59.93
2022-09-15T12:41:18.469Z,59.84
2022-09-15T12:43:55.449Z,59.69
2022-09-15T12:46:22.299Z,59.44
2022-09-15T12:48:50.451Z,58.91
2022-09-15T12:51:22.367Z,58.44
2022-09-15T12:53:52.203Z,58.29
2022-09-15T12:56:24.377Z,58.29
2022-09-15T12:58:51.675Z,58.30
2022-09-15T13:01:18.803Z,58.00
2022-09-15T13:03:45.750Z,57.61
2022-09-15T13:06:18.629Z,57.45
2022-09-15T13:09:08.472Z,57.07
2022-09-15T13:14:16.091Z,56.82
2022-09-15T13:16:46.294Z,56.85
2022-09-15T13:19:36.488Z,57.08
2022-09-15T13:22:06.123Z,57.26
2022-09-15T13:24:51.376Z,57.55
2022-09-15T13:31:52.843Z,57.61
2022-09-15T13:40:35.746Z,57.73
2022-09-15T13:43:25.825Z,57.86
2022-09-15T13:45:58.254Z,57.94
2022-09-15T13:48:50.275Z,58.01
2022-09-15T13:51:24.552Z,58.06
2022-09-15T13:53:56.768Z,58.08
2022-09-15T13:56:32.282Z,58.33
2022-09-15T13:59:10.129Z,58.66
2022-09-15T14:01:43.505Z,58.65
2022-09-15T14:04:16.092Z,58.56
2022-09-15T14:06:44.961Z,58.43
2022-09-15T14:09:32.784Z,58.61
2022-09-15T14:12:04.473Z,58.54
2022-09-15T14:14:38.343Z,58.51
2022-09-15T14:17:19.229Z,58.53
2022-09-15T14:19:54.710Z,58.57
2022-09-15T14:25:16.546Z,58.00
2022-09-15T14:27:44.568Z,57.84
2022-09-15T14:30:32.565Z,57.73
2022-09-15T14:33:01.620Z,57.47
2022-09-15T14:35:33.287Z,57.05
2022-09-15T14:37:59.896Z,56.83
2022-09-15T14:40:29.532Z,57.15
2022-09-15T14:42:57.409Z,57.06
2022-09-15T14:48:30.212Z,57.43
2022-09-15T14:51:01.988Z,57.72
2022-09-15T14:53:34.487Z,57.79
2022-09-15T14:56:08.478Z,57.50
2022-09-15T14:58:38.463Z,57.32
2022-09-15T15:01:23.663Z,57.02
2022-09-15T15:04:01.751Z,56.66
2022-09-15T15:06:36.796Z,56.96
2022-09-15T15:09:06.786Z,56.93
2022-09-15T15:11:34.347Z,57.09
2022-09-15T15:14:10.915Z,57.40
2022-09-15T15:16:48.814Z,57.52
2022-09-15T15:19:33.892Z,57.57
2022-09-15T15:22:12.439Z,57.88
2022-09-15T15:24:42.839Z,58.18
2022-09-15T15:27:29.445Z,58.24
2022-09-15T15:29:56.222Z,58.40
2022-09-15T15:32:32.832Z,58.72
2022-09-15T15:35:07.454Z,58.87
2022-09-15T15:37:34.600Z,59.06
2022-09-15T15:40:04.553Z,59.13
2022-09-15T15:42:31.350Z,59.36
2022-09-15T15:45:16.514Z,59.35
2022-09-15T15:47:43.224Z,59.49
2022-09-15T15:50:13.959Z,59.74
2022-09-15T15:52:41.330Z,59.89
2022-09-15T15:55:12.670Z,60.53
2022-09-15T15:57:42.315Z,61.02
2022-09-15T16:00:23.865Z,61.35
2022-09-15T16:02:50.889Z,61.43
2022-09-15T16:05:21.573Z,61.59
2022-09-15T16:07:50.209Z,61.62
2022-09-15T16:10:18.574Z,61.97
2022-09-15T16:12:50.142Z,62.00
2022-09-15T16:15:18.391Z,62.20
2022-09-15T16:17:47.228Z,62.64
2022-09-15T16:20:24.472Z,63.33
2022-09-15T16:23:16.370Z,64.62
2022-09-15T16:25:54.688Z,65.66
2022-09-15T16:28:21.326Z,66.49
2022-09-15T16:30:47.844Z,67.90
2022-09-15T16:33:15.164Z,69.68
2022-09-15T16:35:50.341Z,70.20
2022-09-15T16:44:24.729Z,72.25
2022-09-15T16:46:51.384Z,72.38
2022-09-15T16:49:18.116Z,72.94
2022-09-15T16:51:50.766Z,72.67
2022-09-15T16:54:19.286Z,73.72
2022-09-15T16:56:46.029Z,74.97
2022-09-15T16:59:37.502Z,75.62
2022-09-15T17:02:29.429Z,76.06
2022-09-15T17:04:56.850Z,76.35
2022-09-15T17:07:58.395Z,76.77
2022-09-15T17:10:27.968Z,76.83
2022-09-15T17:12:58.036Z,76.92
2022-09-15T17:15:27.406Z,77.14
2022-09-15T17:18:19.369Z,77.31
2022-09-15T17:20:46.668Z,77.77
2022-09-15T17:26:31.499Z,77.97
2022-09-15T17:28:58.353Z,78.09
2022-09-15T17:31:25.195Z,78.13
2022-09-15T17:33:54.960Z,78.42
2022-09-15T17:44:56.664Z,78.74
2022-09-15T17:47:23.285Z,78.70
2022-09-15T17:49:49.836Z,78.78
2022-09-15T17:52:19.506Z,78.68
2022-09-15T17:58:53.256Z,79.01
2022-09-15T18:01:20.075Z,78.95
2022-09-15T18:04:11.899Z,78.74
2022-09-15T18:06:41.188Z,78.81
2022-09-15T18:09:36.265Z,78.69
2022-09-15T18:21:22.930Z,79.29
2022-09-15T18:23:49.699Z,79.74
2022-09-15T18:26:16.186Z,79.91
2022-09-15T18:28:42.899Z,80.63
2022-09-15T18:31:12.045Z,80.66
2022-09-15T18:33:38.920Z,81.09
2022-09-15T18:36:06.236Z,82.75
2022-09-15T18:38:33.272Z,83.87
2022-09-15T18:41:03.193Z,83.96
2022-09-15T18:43:29.998Z,83.39
2022-09-15T18:46:25.859Z,82.95
2022-09-15T18:48:53.118Z,82.67
2022-09-15T18:51:24.401Z,82.93
2022-09-15T18:54:01.440Z,82.94
2022-09-15T18:56:53.132Z,83.07
2022-09-15T19:03:44.461Z,83.97
2022-09-15T19:24:47.075Z,84.65
2022-09-15T19:27:13.666Z,84.35
2022-09-15T19:29:43.174Z,84.26
2022-09-15T19:32:10.985Z,84.70
2022-09-15T19:34:38.593Z,84.88
2022-09-15T19:37:10.690Z,84.86
2022-09-15T19:43:57.049Z,84.63
2022-09-15T19:46:24.300Z,84.55
2022-09-15T19:48:51.765Z,84.45
2022-09-15T19:51:21.971Z,84.48
2022-09-15T19:53:52.943Z,84.54
2022-09-15T19:56:25.654Z,84.57
2022-09-15T19:58:55.119Z,84.57
2022-09-15T20:01:30.971Z,84.51
2022-09-15T20:03:58.897Z,84.60
2022-09-15T20:06:31.672Z,84.42
2022-09-15T20:08:59.639Z,84.26
2022-09-15T20:11:37.817Z,84.55
2022-09-15T20:14:18.311Z,84.41
2022-09-15T20:16:49.567Z,84.40
2022-09-15T20:19:27.536Z,84.49
2022-09-15T20:22:30.021Z,84.38
2022-09-15T20:24:57.511Z,84.59
2022-09-15T20:27:27.220Z,84.71
2022-09-15T20:29:56.360Z,84.68
2022-09-15T20:32:28.686Z,84.42
2022-09-15T20:35:02.452Z,84.52
2022-09-15T20:37:31.238Z,84.60
2022-09-15T20:40:02.366Z,84.46
2022-09-15T20:42:29.178Z,84.42
2022-09-15T20:44:55.764Z,84.49
2022-09-15T20:47:30.937Z,84.58
2022-09-15T20:49:57.567Z,84.46
2022-09-15T20:52:27.975Z,84.28
2022-09-15T20:54:56.600Z,84.49
2022-09-15T20:57:34.788Z,84.45
2022-09-15T21:00:02.127Z,84.33
2022-09-15T21:02:28.775Z,84.27
2022-09-15T21:04:55.329Z,84.41
2022-09-15T21:07:21.953Z,84.48
2022-09-15T21:09:48.528Z,84.64
2022-09-15T21:12:15.636Z,84.44
2022-09-15T21:14:42.778Z,84.57
2022-09-15T21:17:10.591Z,84.86
2022-09-15T21:19:37.432Z,84.98
2022-09-15T21:22:04.112Z,85.06
2022-09-15T21:24:30.792Z,85.23
2022-09-15T21:27:15.743Z,85.32
2022-09-15T21:29:42.619Z,85.28
2022-09-15T21:32:09.283Z,85.14
2022-09-15T21:34:35.985Z,85.26
2022-09-15T21:37:02.532Z,85.43
2022-09-15T21:39:29.184Z,85.54
2022-09-15T21:41:55.872Z,85.66
2022-09-15T21:44:22.668Z,85.60
2022-09-15T21:46:49.469Z,85.78
2022-09-15T21:49:26.370Z,85.60
2022-09-15T21:52:07.736Z,85.65
2022-09-15T21:54:39.751Z,85.66
2022-09-15T21:57:09.628Z,85.57
2022-09-15T21:59:36.602Z,85.47
2022-09-15T22:02:07.023Z,85.60
2022-09-15T22:04:37.591Z,85.62
2022-09-15T22:07:14.002Z,85.73
2022-09-15T22:09:42.219Z,85.76
2022-09-15T22:12:12.668Z,85.59
2022-09-15T22:14:45.906Z,85.79
2022-09-15T22:17:13.419Z,85.91
2022-09-15T22:19:40.225Z,85.77
2022-09-15T22:22:09.455Z,85.82
2022-09-15T22:24:36.252Z,85.95
2022-09-15T22:27:03.117Z,86.03
2022-09-15T22:29:29.925Z,86.18
2022-09-15T22:42:54.856Z,86.67
2022-09-15T22:45:54.522Z,86.54
2022-09-15T23:40:29.261Z,89.89
2022-09-15T23:43:01.900Z,90.00
2022-09-15T23:46:02.753Z,90.18
